| time (UTC) | temp F | wind direction | speed knots | gust knots | rain 1hr in | rain 24hr in | rain mn in | humidity % | barometer mb |
| 20260504033402 | 47 | 341 | 0.0 | 1.7 | 0.00 | 0.00 | 0.00 | 96 | 1017.0 |
| 20260504032905 | 47 | 341 | 0.9 | 1.7 | 0.00 | 0.00 | 0.00 | 95 | 1017.0 |
| 20260504032405 | 48 | 341 | 0.0 | 0.0 | 0.00 | 0.00 | 0.00 | 96 | 1017.0 |
| 20260504031905 | 48 | 341 | 0.0 | 0.0 | 0.00 | 0.00 | 0.00 | 96 | 1017.0 |
| 20260504031402 | 48 | 341 | 0.0 | 0.0 | 0.00 | 0.00 | 0.00 | 96 | 1017.0 |
| 20260504030905 | 48 | 341 | 0.0 | 0.0 | 0.00 | 0.00 | 0.00 | 96 | 1017.0 |
| 20260504030402 | 48 | 341 | 0.0 | 0.0 | 0.00 | 0.00 | 0.00 | 95 | 1017.0 |
| 20260504025902 | 48 | 341 | 0.0 | 0.0 | 0.00 | 0.00 | 0.00 | 95 | 1017.0 |
| 20260504025405 | 48 | 341 | 0.0 | 0.0 | 0.00 | 0.00 | 0.00 | 95 | 1017.0 |
| 20260504024905 | 48 | 341 | 0.0 | 0.0 | 0.00 | 0.00 | 0.00 | 95 | 1017.0 |
| 20260504024402 | 48 | 341 | 0.0 | 0.0 | 0.00 | 0.00 | 0.00 | 95 | 1017.0 |
| 20260504023902 | 48 | 341 | 0.0 | 0.0 | 0.00 | 0.00 | 0.00 | 95 | 1017.0 |
| 20260504023402 | 49 | 341 | 0.0 | 0.0 | 0.00 | 0.00 | 0.00 | 95 | 1017.0 |
| 20260504022905 | 49 | 341 | 0.0 | 0.9 | 0.00 | 0.00 | 0.00 | 95 | 1017.1 |
| 20260504022405 | 49 | 341 | 0.9 | 1.7 | 0.00 | 0.00 | 0.00 | 95 | 1017.1 |
| 20260504021902 | 48 | 341 | 0.9 | 1.7 | 0.00 | 0.00 | 0.00 | 95 | 1017.1 |
| 20260504021402 | 48 | 341 | 1.7 | 2.6 | 0.00 | 0.00 | 0.00 | 95 | 1017.1 |
| 20260504020901 | 48 | 28 | 0.0 | 0.0 | 0.00 | 0.00 | 0.00 | 95 | 1017.1 |
| 20260504020401 | 49 | 29 | 0.0 | 0.0 | 0.00 | 0.00 | 0.00 | 95 | 1017.1 |
| 20260504015901 | 49 | 29 | 0.0 | 0.0 | 0.00 | 0.00 | 0.00 | 95 | 1017.0 |
| 20260504015401 | 49 | 29 | 0.0 | 2.6 | 0.00 | 0.00 | 0.00 | 95 | 1017.0 |
| 20260504014901 | 49 | 19 | 1.7 | 2.6 | 0.00 | 0.00 | 0.00 | 95 | 1017.0 |
| 20260504014401 | 49 | 12 | 1.7 | 2.6 | 0.00 | 0.00 | 0.00 | 95 | 1016.9 |
| 20260504013904 | 49 | 0 | 1.7 | 2.6 | 0.00 | 0.00 | 0.00 | 94 | 1016.9 |
| 20260504013404 | 50 | 326 | 0.0 | 0.0 | 0.00 | 0.00 | 0.00 | 95 | 1016.9 |
| 20260504012905 | 50 | 326 | 0.0 | 0.0 | 0.00 | 0.00 | 0.00 | 95 | 1017.0 |
| 20260504012404 | 50 | 326 | 0.0 | 0.0 | 0.00 | 0.00 | 0.00 | 95 | 1017.0 |
| 20260504011904 | 51 | 326 | 0.0 | 0.0 | 0.00 | 0.00 | 0.00 | 95 | 1017.0 |
| 20260504011401 | 51 | 326 | 0.0 | 0.9 | 0.00 | 0.00 | 0.00 | 95 | 1017.0 |
| 20260504010904 | 51 | 326 | 0.9 | 2.6 | 0.00 | 0.00 | 0.00 | 94 | 1017.0 |
| 20260504010404 | 50 | 326 | 0.9 | 2.6 | 0.00 | 0.00 | 0.00 | 94 | 1017.0 |
| 20260504005901 | 50 | 335 | 0.0 | 0.0 | 0.00 | 0.00 | 0.00 | 94 | 1016.8 |
| 20260504005401 | 50 | 335 | 0.0 | 1.7 | 0.00 | 0.00 | 0.00 | 94 | 1016.8 |
| 20260504004901 | 50 | 335 | 0.0 | 0.0 | 0.00 | 0.00 | 0.00 | 94 | 1016.8 |
| 20260504004401 | 51 | 335 | 0.0 | 0.0 | 0.00 | 0.00 | 0.00 | 94 | 1016.7 |
| 20260504003901 | 51 | 335 | 0.0 | 0.0 | 0.00 | 0.00 | 0.00 | 94 | 1016.7 |
| 20260504003404 | 51 | 335 | 0.0 | 0.0 | 0.00 | 0.00 | 0.00 | 94 | 1016.7 |
| 20260504002902 | 51 | 335 | 0.0 | 0.0 | 0.00 | 0.00 | 0.00 | 93 | 1016.8 |
| 20260504002401 | 51 | 335 | 0.0 | 0.0 | 0.00 | 0.00 | 0.00 | 93 | 1016.8 |
| 20260504001905 | 51 | 335 | 0.0 | 0.0 | 0.00 | 0.00 | 0.00 | 93 | 1016.8 |
| 20260504001404 | 52 | 335 | 0.0 | 0.0 | 0.00 | 0.00 | 0.00 | 93 | 1017.0 |
| 20260504000901 | 52 | 335 | 0.0 | 0.0 | 0.00 | 0.00 | 0.00 | 93 | 1017.0 |
| 20260504000404 | 51 | 335 | 0.0 | 0.0 | 0.00 | 0.00 | 0.00 | 93 | 1017.0 |
| 20260503235902 | 51 | 335 | 0.0 | 0.0 | 0.00 | 0.00 | 0.00 | 93 | 1017.2 |
| 20260503235404 | 51 | 335 | 0.0 | 0.0 | 0.00 | 0.00 | 0.00 | 93 | 1017.2 |
| 20260503234904 | 52 | 335 | 0.0 | 0.0 | 0.00 | 0.00 | 0.00 | 93 | 1017.2 |
| 20260503234404 | 52 | 335 | 0.0 | 0.0 | 0.00 | 0.00 | 0.00 | 93 | 1017.3 |
| 20260503233904 | 52 | 335 | 0.0 | 0.0 | 0.00 | 0.00 | 0.00 | 93 | 1017.3 |
| 20260503233404 | 52 | 335 | 0.0 | 0.0 | 0.00 | 0.00 | 0.00 | 93 | 1017.3 |
| 20260503232904 | 52 | 335 | 0.0 | 0.0 | 0.00 | 0.00 | 0.00 | 92 | 1017.4 |
| 20260503232405 | 52 | 335 | 0.0 | 0.0 | 0.00 | 0.00 | 0.00 | 92 | 1017.4 |
| 20260503231904 | 52 | 335 | 0.0 | 0.0 | 0.00 | 0.00 | 0.00 | 92 | 1017.4 |
| 20260503231404 | 53 | 335 | 0.0 | 0.0 | 0.00 | 0.00 | 0.00 | 92 | 1017.5 |
| 20260503230904 | 53 | 335 | 0.0 | 0.0 | 0.00 | 0.00 | 0.00 | 92 | 1017.5 |
| 20260503230404 | 53 | 335 | 0.0 | 0.0 | 0.00 | 0.00 | 0.00 | 92 | 1017.5 |
| 20260503225902 | 53 | 335 | 0.0 | 1.7 | 0.00 | 0.00 | 0.00 | 92 | 1017.6 |
| 20260503225401 | 53 | 335 | 0.9 | 1.7 | 0.00 | 0.00 | 0.00 | 92 | 1017.6 |
| 20260503224904 | 53 | 335 | 0.0 | 0.0 | 0.00 | 0.00 | 0.00 | 92 | 1017.6 |
| 20260503224401 | 53 | 335 | 0.0 | 0.0 | 0.00 | 0.00 | 0.00 | 91 | 1017.6 |
| 20260503223901 | 53 | 335 | 0.0 | 0.0 | 0.00 | 0.00 | 0.00 | 91 | 1017.6 |
| 20260503223401 | 53 | 335 | 0.0 | 1.7 | 0.00 | 0.00 | 0.00 | 91 | 1017.6 |
| 20260503222901 | 53 | 335 | 0.9 | 2.6 | 0.00 | 0.00 | 0.00 | 91 | 1017.6 |
| 20260503222401 | 54 | 355 | 1.7 | 1.7 | 0.00 | 0.00 | 0.00 | 90 | 1017.6 |
| 20260503221904 | 55 | 355 | 0.9 | 1.7 | 0.00 | 0.00 | 0.00 | 90 | 1017.6 |
| 20260503221401 | 55 | 0 | 0.0 | 1.7 | 0.00 | 0.00 | 0.00 | 90 | 1017.6 |
| 20260503220901 | 55 | 5 | 0.0 | 0.9 | 0.00 | 0.00 | 0.00 | 90 | 1017.6 |
| 20260503220404 | 55 | 5 | 0.0 | 1.7 | 0.00 | 0.00 | 0.00 | 90 | 1017.6 |
| 20260503215901 | 56 | 5 | 0.0 | 0.0 | 0.00 | 0.00 | 0.00 | 90 | 1017.6 |
| 20260503215404 | 55 | 5 | 0.0 | 0.0 | 0.00 | 0.00 | 0.00 | 89 | 1017.6 |
| 20260503214901 | 56 | 5 | 0.0 | 0.0 | 0.00 | 0.00 | 0.00 | 89 | 1017.6 |
| 20260503214401 | 56 | 5 | 0.0 | 0.0 | 0.00 | 0.00 | 0.00 | 89 | 1017.6 |
| 20260503213905 | 55 | 5 | 0.0 | 0.0 | 0.00 | 0.00 | 0.00 | 88 | 1017.6 |
| 20260503213404 | 55 | 5 | 0.0 | 0.0 | 0.00 | 0.00 | 0.00 | 87 | 1017.6 |
| 20260503212904 | 56 | 5 | 0.0 | 0.0 | 0.00 | 0.00 | 0.00 | 87 | 1017.6 |
| 20260503212401 | 56 | 5 | 0.0 | 0.0 | 0.00 | 0.00 | 0.00 | 87 | 1017.6 |
| 20260503211904 | 56 | 5 | 0.0 | 0.0 | 0.00 | 0.00 | 0.00 | 88 | 1017.6 |
| 20260503211404 | 57 | 5 | 0.0 | 0.9 | 0.00 | 0.00 | 0.00 | 88 | 1017.6 |
| 20260503210904 | 57 | 5 | 0.0 | 0.0 | 0.00 | 0.00 | 0.00 | 88 | 1017.6 |
| 20260503210404 | 56 | 5 | 0.0 | 0.0 | 0.00 | 0.00 | 0.00 | 87 | 1017.6 |
| 20260503205904 | 56 | 5 | 0.0 | 1.7 | 0.00 | 0.00 | 0.00 | 87 | 1017.6 |
| 20260503205404 | 57 | 5 | 1.7 | 1.7 | 0.00 | 0.00 | 0.00 | 86 | 1017.6 |
| 20260503204904 | 57 | 5 | 0.0 | 0.0 | 0.00 | 0.00 | 0.00 | 85 | 1017.6 |
| 20260503204404 | 58 | 5 | 0.0 | 0.0 | 0.00 | 0.00 | 0.00 | 85 | 1017.4 |
| 20260503203904 | 58 | 5 | 0.0 | 0.0 | 0.00 | 0.00 | 0.00 | 85 | 1017.4 |
| 20260503203400 | 59 | 5 | 0.0 | 0.0 | 0.00 | 0.00 | 0.00 | 85 | 1017.4 |
| 20260503202900 | 59 | 5 | 0.0 | 0.0 | 0.00 | 0.00 | 0.00 | 84 | 1017.5 |
| 20260503202400 | 59 | 5 | 0.0 | 0.0 | 0.00 | 0.00 | 0.00 | 84 | 1017.5 |
| 20260503201903 | 59 | 5 | 0.0 | 0.0 | 0.00 | 0.00 | 0.00 | 84 | 1017.5 |
| 20260503201400 | 59 | 5 | 0.0 | 0.0 | 0.00 | 0.00 | 0.00 | 83 | 1017.4 |
| 20260503200900 | 59 | 5 | 0.0 | 0.0 | 0.00 | 0.00 | 0.00 | 83 | 1017.4 |
| 20260503200403 | 60 | 5 | 0.0 | 0.0 | 0.00 | 0.00 | 0.00 | 82 | 1017.4 |
| 20260503195900 | 60 | 5 | 0.0 | 0.0 | 0.00 | 0.00 | 0.00 | 82 | 1017.3 |
| 20260503195401 | 60 | 5 | 0.0 | 0.0 | 0.00 | 0.00 | 0.00 | 81 | 1017.3 |
| 20260503194903 | 60 | 5 | 0.0 | 0.0 | 0.00 | 0.00 | 0.00 | 81 | 1017.3 |
| 20260503194404 | 61 | 5 | 0.0 | 1.7 | 0.00 | 0.00 | 0.00 | 79 | 1017.2 |
| 20260503193900 | 61 | 5 | 0.0 | 0.0 | 0.00 | 0.00 | 0.00 | 80 | 1017.2 |
| 20260503193400 | 62 | 5 | 0.0 | 0.0 | 0.00 | 0.00 | 0.00 | 79 | 1017.2 |
| 20260503192903 | 62 | 5 | 0.0 | 0.0 | 0.00 | 0.00 | 0.00 | 79 | 1017.1 |
| 20260503192400 | 62 | 5 | 0.0 | 0.9 | 0.00 | 0.00 | 0.00 | 79 | 1017.1 |
| 20260503191903 | 62 | 5 | 0.0 | 0.9 | 0.00 | 0.00 | 0.00 | 78 | 1017.1 |
| 20260503191403 | 62 | 5 | 0.0 | 3.5 | 0.00 | 0.00 | 0.00 | 78 | 1017.1 |
| 20260503190900 | 62 | 23 | 0.9 | 2.6 | 0.00 | 0.00 | 0.00 | 77 | 1017.1 |
| 20260503190403 | 62 | 30 | 0.9 | 2.6 | 0.00 | 0.00 | 0.00 | 77 | 1017.1 |
| 20260503185904 | 63 | 5 | 0.0 | 2.6 | 0.00 | 0.00 | 0.00 | 77 | 1017.1 |
| 20260503185403 | 63 | 0 | 0.0 | 1.7 | 0.00 | 0.00 | 0.00 | 77 | 1017.1 |
| 20260503184903 | 63 | 355 | 0.9 | 2.6 | 0.00 | 0.00 | 0.00 | 76 | 1017.1 |
| 20260503184400 | 63 | 342 | 1.7 | 2.6 | 0.00 | 0.00 | 0.00 | 76 | 1016.9 |
| 20260503183900 | 63 | 16 | 0.9 | 3.5 | 0.00 | 0.00 | 0.00 | 76 | 1016.9 |
| 20260503183403 | 63 | 26 | 2.6 | 3.5 | 0.00 | 0.00 | 0.00 | 76 | 1016.9 |
| 20260503182903 | 63 | 350 | 1.7 | 1.7 | 0.00 | 0.00 | 0.00 | 75 | 1016.6 |
| 20260503182400 | 63 | 309 | 0.0 | 2.6 | 0.00 | 0.00 | 0.00 | 74 | 1016.6 |
| 20260503181903 | 63 | 314 | 0.9 | 4.3 | 0.00 | 0.00 | 0.00 | 74 | 1016.6 |
| 20260503181403 | 64 | 286 | 0.9 | 6.1 | 0.00 | 0.00 | 0.00 | 74 | 1016.6 |
| 20260503180903 | 64 | 306 | 3.5 | 7.0 | 0.00 | 0.00 | 0.00 | 74 | 1016.6 |
| 20260503180403 | 64 | 286 | 2.6 | 6.1 | 0.00 | 0.00 | 0.00 | 74 | 1016.6 |
| 20260503175901 | 64 | 278 | 4.3 | 7.0 | 0.00 | 0.00 | 0.00 | 73 | 1016.3 |
| 20260503175403 | 65 | 312 | 3.5 | 6.1 | 0.00 | 0.00 | 0.00 | 72 | 1016.3 |
| 20260503174903 | 65 | 259 | 5.2 | 8.7 | 0.00 | 0.00 | 0.00 | 71 | 1016.3 |
| 20260503174403 | 65 | 263 | 8.7 | 8.7 | 0.00 | 0.00 | 0.00 | 71 | 1016.0 |
| 20260503173903 | 66 | 267 | 6.1 | 8.7 | 0.00 | 0.00 | 0.00 | 70 | 1016.0 |
| 20260503173403 | 67 | 267 | 6.1 | 9.6 | 0.00 | 0.00 | 0.00 | 69 | 1016.0 |
| 20260503172900 | 67 | 277 | 7.0 | 7.8 | 0.00 | 0.00 | 0.00 | 68 | 1015.6 |
| 20260503172403 | 67 | 262 | 5.2 | 8.7 | 0.00 | 0.00 | 0.00 | 67 | 1015.6 |
| 20260503171900 | 68 | 270 | 6.1 | 8.7 | 0.00 | 0.00 | 0.00 | 65 | 1015.6 |
| 20260503171400 | 68 | 267 | 6.1 | 8.7 | 0.00 | 0.00 | 0.00 | 64 | 1015.5 |
| 20260503170903 | 68 | 261 | 3.5 | 7.0 | 0.00 | 0.00 | 0.00 | 62 | 1015.5 |
| 20260503170403 | 69 | 259 | 5.2 | 7.8 | 0.00 | 0.00 | 0.00 | 61 | 1015.5 |
| 20260503150903 | 70 | 304 | 5.2 | 12.2 | 0.00 | 0.00 | 0.00 | 59 | 1016.5 |
| 20260503150400 | 70 | 286 | 8.7 | 13.0 | 0.00 | 0.00 | 0.00 | 58 | 1016.5 |
| 20260503131402 | 73 | 288 | 9.6 | 14.8 | 0.00 | 0.00 | 0.00 | 45 | 1017.2 |
| 20260503130859 | 73 | 281 | 5.2 | 13.0 | 0.00 | 0.00 | 0.00 | 45 | 1017.2 |
| 20260503130402 | 72 | 298 | 7.0 | 16.5 | 0.00 | 0.00 | 0.00 | 46 | 1017.2 |
| 20260503110402 | 73 | 306 | 9.6 | 12.2 | 0.00 | 0.00 | 0.00 | 50 | 1017.1 |
| 20260503090358 | 70 | 283 | 5.2 | 9.6 | 0.00 | 0.00 | 0.00 | 52 | 1018.2 |
| 20260503081401 | 68 | 331 | 0.0 | 3.5 | 0.00 | 0.00 | 0.00 | 62 | 1018.6 |
| 20260503080901 | 68 | 12 | 0.0 | 3.5 | 0.00 | 0.00 | 0.00 | 63 | 1018.6 |
| 20260503080401 | 67 | 288 | 0.0 | 4.3 | 0.00 | 0.00 | 0.00 | 65 | 1018.6 |
| 20260503072901 | 64 | 315 | 0.0 | 1.7 | 0.00 | 0.00 | 0.00 | 68 | 1018.8 |
| 20260503072401 | 64 | 314 | 0.9 | 1.7 | 0.00 | 0.00 | 0.00 | 67 | 1018.8 |
| 20260503071901 | 64 | 81 | 0.0 | 1.7 | 0.00 | 0.00 | 0.00 | 68 | 1018.8 |
| 20260503071402 | 63 | 82 | 0.9 | 2.6 | 0.00 | 0.00 | 0.00 | 67 | 1019.0 |
| 20260503070858 | 63 | 76 | 0.0 | 1.7 | 0.00 | 0.00 | 0.00 | 70 | 1019.0 |
| 20260503070401 | 62 | 69 | 0.0 | 0.9 | 0.00 | 0.00 | 0.00 | 70 | 1019.0 |
| 20260503054901 | 52 | 302 | 0.0 | 0.0 | 0.00 | 0.00 | 0.00 | 87 | 1018.8 |
| 20260503054401 | 51 | 302 | 0.0 | 0.0 | 0.00 | 0.00 | 0.00 | 87 | 1018.7 |
| 20260503053858 | 51 | 302 | 0.0 | 0.0 | 0.00 | 0.00 | 0.00 | 88 | 1018.7 |
| 20260503053358 | 50 | 302 | 0.0 | 0.0 | 0.00 | 0.00 | 0.00 | 88 | 1018.7 |
| 20260503052858 | 51 | 302 | 0.0 | 0.0 | 0.00 | 0.00 | 0.00 | 88 | 1018.6 |
| 20260503052401 | 51 | 302 | 0.0 | 0.0 | 0.00 | 0.00 | 0.00 | 90 | 1018.6 |
| 20260503051858 | 50 | 302 | 0.0 | 0.0 | 0.00 | 0.00 | 0.00 | 91 | 1018.6 |
| 20260503051358 | 48 | 302 | 0.0 | 0.0 | 0.00 | 0.00 | 0.00 | 92 | 1018.6 |
| 20260503050859 | 47 | 302 | 0.0 | 0.0 | 0.00 | 0.00 | 0.00 | 92 | 1018.6 |
| 20260503050401 | 46 | 302 | 0.0 | 0.0 | 0.00 | 0.00 | 0.00 | 92 | 1018.6 |
| 20260503045858 | 46 | 302 | 0.0 | 0.0 | 0.00 | 0.00 | 0.00 | 92 | 1018.7 |
| 20260503045358 | 45 | 302 | 0.0 | 0.0 | 0.00 | 0.00 | 0.00 | 92 | 1018.7 |
| 20260503044901 | 45 | 302 | 0.0 | 1.7 | 0.00 | 0.00 | 0.00 | 92 | 1018.7 |
| 20260503044401 | 45 | 302 | 1.7 | 2.6 | 0.00 | 0.00 | 0.00 | 92 | 1018.7 |
| 20260503043858 | 44 | 302 | 0.9 | 2.6 | 0.00 | 0.00 | 0.00 | 92 | 1018.7 |
| 20260503043401 | 43 | 304 | 1.7 | 2.6 | 0.00 | 0.00 | 0.00 | 92 | 1018.7 |
| 20260503042858 | 44 | 304 | 0.9 | 2.6 | 0.00 | 0.00 | 0.00 | 92 | 1018.6 |
| 20260503042401 | 44 | 304 | 0.0 | 0.0 | 0.00 | 0.00 | 0.00 | 92 | 1018.6 |
| 20260503041901 | 44 | 304 | 0.0 | 0.0 | 0.00 | 0.00 | 0.00 | 92 | 1018.6 |
| 20260503041358 | 44 | 304 | 0.0 | 0.0 | 0.00 | 0.00 | 0.00 | 92 | 1018.6 |
| 20260503040858 | 44 | 304 | 0.0 | 0.0 | 0.00 | 0.00 | 0.00 | 92 | 1018.6 |
| 20260503040358 | 44 | 304 | 0.0 | 0.0 | 0.00 | 0.00 | 0.00 | 92 | 1018.6 |
| 20260503035901 | 44 | 304 | 0.0 | 0.0 | 0.00 | 0.00 | 0.00 | 92 | 1018.6 |
| 20260503035357 | 44 | 304 | 0.0 | 0.0 | 0.00 | 0.00 | 0.00 | 92 | 1018.6 |
| 20260503034900 | 44 | 304 | 0.0 | 0.0 | 0.00 | 0.00 | 0.00 | 92 | 1018.6 |
| 20260503034357 | 44 | 304 | 0.0 | 0.0 | 0.00 | 0.00 | 0.00 | 92 | 1018.6 |
| 20260503033900 | 44 | 304 | 0.0 | 1.7 | 0.00 | 0.00 | 0.00 | 92 | 1018.6 |